createdAt,value
2023-04-02T00:00:24.237Z,5.49
2023-04-02T00:03:42.246Z,5.37
2023-04-02T00:06:47.549Z,5.41
2023-04-02T00:09:52.445Z,5.52
2023-04-02T00:13:17.593Z,5.43
2023-04-02T00:16:25.260Z,5.32
2023-04-02T00:19:37.764Z,5.53
2023-04-02T00:22:44.998Z,5.33
2023-04-02T00:25:49.798Z,5.36
2023-04-02T00:28:55.103Z,5.30
2023-04-02T00:31:59.983Z,5.25
2023-04-02T00:35:18.215Z,5.40
2023-04-02T00:38:27.461Z,5.30
2023-04-02T00:41:35.980Z,5.47
2023-04-02T00:44:43.874Z,5.28
2023-04-02T00:47:48.562Z,5.14
2023-04-02T00:50:54.883Z,5.29
2023-04-02T00:54:04.547Z,5.17
2023-04-02T00:57:17.784Z,5.32
2023-04-02T01:00:33.408Z,5.20
2023-04-02T01:03:39.115Z,5.28
2023-04-02T01:06:43.975Z,5.13
2023-04-02T01:10:33.410Z,5.43
2023-04-02T01:13:41.733Z,5.30
2023-04-02T01:17:01.195Z,5.59
2023-04-02T01:20:15.161Z,5.41
2023-04-02T01:23:39.477Z,5.52
2023-04-02T01:26:52.676Z,5.47
2023-04-02T01:30:01.594Z,5.25
2023-04-02T01:33:06.907Z,5.06
2023-04-02T01:36:30.254Z,5.20
2023-04-02T01:39:51.209Z,5.32
2023-04-02T01:43:17.389Z,5.33
2023-04-02T01:46:33.775Z,5.28
2023-04-02T01:49:40.182Z,5.40
2023-04-02T01:52:47.985Z,5.23
2023-04-02T01:55:57.916Z,5.43
2023-04-02T01:59:05.854Z,5.43
2023-04-02T02:02:14.336Z,5.04
2023-04-02T02:05:25.844Z,5.24
2023-04-02T02:08:39.346Z,5.07
2023-04-02T02:11:46.492Z,5.38
2023-04-02T02:14:52.280Z,5.52
2023-04-02T02:18:06.873Z,5.50
2023-04-02T02:21:23.903Z,5.27
2023-04-02T02:24:33.487Z,5.38
2023-04-02T02:27:51.030Z,5.28
2023-04-02T02:31:02.705Z,5.30
2023-04-02T02:34:18.520Z,5.10
2023-04-02T02:37:29.905Z,5.50
2023-04-02T02:40:43.210Z,5.38
2023-04-02T02:44:00.119Z,5.16
2023-04-02T02:47:14.242Z,5.34
2023-04-02T02:50:31.586Z,5.37
2023-04-02T02:53:49.078Z,5.36
2023-04-02T02:56:59.054Z,5.23
2023-04-02T03:00:06.985Z,5.13
2023-04-02T03:03:17.210Z,5.06
2023-04-02T03:06:22.390Z,5.15
2023-04-02T03:09:36.155Z,5.19
2023-04-02T03:12:52.877Z,5.29
2023-04-02T03:16:04.300Z,5.17
2023-04-02T03:19:28.242Z,5.20
2023-04-02T03:22:41.599Z,5.10
2023-04-02T03:26:09.399Z,5.10
2023-04-02T03:29:18.443Z,5.19
2023-04-02T03:32:29.241Z,5.29
2023-04-02T03:35:47.396Z,5.18
2023-04-02T03:39:37.051Z,5.19
2023-04-02T03:42:50.856Z,5.25
2023-04-02T03:46:07.239Z,5.14
2023-04-02T03:49:31.289Z,5.15
2023-04-02T03:52:38.307Z,5.26
2023-04-02T03:55:47.106Z,5.31
2023-04-02T03:59:34.816Z,5.14
2023-04-02T04:02:48.349Z,5.16
2023-04-02T04:06:06.512Z,5.02
2023-04-02T04:09:23.300Z,5.20
2023-04-02T04:12:43.663Z,5.21
2023-04-02T04:16:02.812Z,5.35
2023-04-02T04:19:14.149Z,5.19
2023-04-02T04:22:30.025Z,4.92
2023-04-02T04:25:40.330Z,4.87
2023-04-02T04:28:57.223Z,5.39
2023-04-02T04:32:16.604Z,5.38
2023-04-02T04:35:34.310Z,5.34
2023-04-02T04:38:55.126Z,5.40
2023-04-02T04:42:02.971Z,5.47
2023-04-02T04:45:20.909Z,5.23
2023-04-02T04:48:48.546Z,5.04
2023-04-02T04:51:58.936Z,5.20
2023-04-02T04:55:21.548Z,4.91
2023-04-02T04:58:48.009Z,5.16
2023-04-02T05:01:55.841Z,4.89
2023-04-02T05:05:02.485Z,5.16
2023-04-02T05:08:22.574Z,5.07
2023-04-02T05:11:45.024Z,4.94
2023-04-02T05:14:58.182Z,4.95
2023-04-02T05:18:30.582Z,5.25
2023-04-02T05:21:43.615Z,4.71
2023-04-02T05:25:15.683Z,4.94
2023-04-02T05:28:36.720Z,5.27
2023-04-02T05:31:49.719Z,4.83
2023-04-02T05:34:57.093Z,5.00
2023-04-02T05:38:03.019Z,5.12
2023-04-02T05:41:31.441Z,5.25
2023-04-02T05:44:56.310Z,5.13
2023-04-02T05:48:06.280Z,4.72
2023-04-02T05:51:22.091Z,4.90
2023-04-02T05:54:39.884Z,5.03
2023-04-02T05:58:07.419Z,5.04
2023-04-02T06:01:35.193Z,5.30
2023-04-02T06:05:06.870Z,5.04
2023-04-02T06:08:24.137Z,5.07
2023-04-02T06:11:33.187Z,4.84
2023-04-02T06:14:39.955Z,4.99
2023-04-02T06:17:48.558Z,4.77
2023-04-02T06:20:53.763Z,4.97
2023-04-02T06:24:03.396Z,4.75
2023-04-02T06:27:14.181Z,4.61
2023-04-02T06:30:25.426Z,5.07
2023-04-02T06:33:30.672Z,5.05
2023-04-02T06:36:35.642Z,4.78
2023-04-02T06:39:44.451Z,4.92
2023-04-02T06:42:59.575Z,4.94
2023-04-02T06:46:19.341Z,4.88
2023-04-02T06:49:48.532Z,5.07
2023-04-02T06:52:57.260Z,4.96
2023-04-02T06:56:28.150Z,5.25
2023-04-02T06:59:32.947Z,4.95
2023-04-02T07:02:40.340Z,5.06
2023-04-02T07:05:47.589Z,5.16
2023-04-02T07:08:52.522Z,4.71
2023-04-02T07:11:58.385Z,5.07
2023-04-02T07:15:04.334Z,5.06
2023-04-02T07:18:34.705Z,5.27
2023-04-02T07:21:42.640Z,5.14
2023-04-02T07:24:47.322Z,5.40
2023-04-02T07:27:53.021Z,5.26
2023-04-02T07:30:57.677Z,5.15
2023-04-02T07:34:02.243Z,5.22
2023-04-02T07:37:07.244Z,5.01
2023-04-02T07:40:18.342Z,5.21
2023-04-02T07:43:23.185Z,5.29
2023-04-02T07:46:27.818Z,5.44
2023-04-02T07:49:32.339Z,5.33
2023-04-02T07:52:43.782Z,5.28
2023-04-02T07:55:52.701Z,5.53
2023-04-02T07:58:57.682Z,5.51
2023-04-02T08:02:02.752Z,5.50
2023-04-02T08:05:07.792Z,5.66
2023-04-02T08:08:12.299Z,5.43
2023-04-02T08:11:17.461Z,5.52
2023-04-02T08:14:22.012Z,5.60
2023-04-02T08:17:31.284Z,5.76
2023-04-02T08:20:36.070Z,5.73
2023-04-02T08:23:40.903Z,5.86
2023-04-02T08:26:46.661Z,5.72
2023-04-02T08:29:51.385Z,5.79
2023-04-02T08:32:55.979Z,5.66
2023-04-02T08:36:00.940Z,5.77
2023-04-02T08:39:11.068Z,5.96
2023-04-02T08:42:21.524Z,5.80
2023-04-02T08:45:52.179Z,5.56
2023-04-02T08:49:00.597Z,5.87
2023-04-02T08:52:05.408Z,5.80
2023-04-02T08:55:25.994Z,5.87
2023-04-02T08:58:38.623Z,6.01
2023-04-02T09:01:58.798Z,5.87
2023-04-02T09:05:08.031Z,6.22
2023-04-02T09:08:22.205Z,5.93
2023-04-02T09:11:44.198Z,6.30
2023-04-02T09:15:11.852Z,6.70
2023-04-02T09:18:18.197Z,6.80
2023-04-02T09:21:31.917Z,6.61
2023-04-02T09:24:37.750Z,6.24
2023-04-02T09:27:42.417Z,6.02
2023-04-02T09:30:58.269Z,6.15
2023-04-02T09:34:30.597Z,6.21
2023-04-02T09:37:37.274Z,5.85
2023-04-02T09:40:48.195Z,6.10
2023-04-02T09:44:21.633Z,6.08
2023-04-02T09:47:27.273Z,6.23
2023-04-02T09:50:34.052Z,6.18
2023-04-02T09:53:42.560Z,6.73
2023-04-02T09:57:06.479Z,5.86
2023-04-02T10:00:29.821Z,6.08
2023-04-02T10:03:36.621Z,6.18
2023-04-02T10:06:49.837Z,6.65
2023-04-02T10:10:16.858Z,6.60
2023-04-02T10:13:36.478Z,6.66
2023-04-02T10:16:51.793Z,6.38
2023-04-02T10:20:02.526Z,6.32
2023-04-02T10:23:15.474Z,6.34
2023-04-02T10:26:33.034Z,6.39
2023-04-02T10:30:02.584Z,6.58
2023-04-02T10:33:20.030Z,6.67
2023-04-02T10:36:24.631Z,6.47
2023-04-02T10:39:47.427Z,6.22
2023-04-02T10:43:26.990Z,6.33
2023-04-02T10:46:53.650Z,6.40
2023-04-02T10:50:26.202Z,6.29
2023-04-02T10:53:52.732Z,6.25
2023-04-02T10:57:26.603Z,6.45
2023-04-02T11:00:37.109Z,6.30
2023-04-02T11:03:54.894Z,6.48
2023-04-02T11:07:13.760Z,6.63
2023-04-02T11:10:21.025Z,6.36
2023-04-02T11:13:42.604Z,6.53
2023-04-02T11:16:50.121Z,7.01
2023-04-02T11:19:56.063Z,7.58
2023-04-02T11:23:11.418Z,7.16
2023-04-02T11:26:37.442Z,7.61
2023-04-02T11:29:51.774Z,7.39
2023-04-02T11:33:38.152Z,7.07
2023-04-02T11:36:50.676Z,7.08
2023-04-02T11:39:58.399Z,7.16
2023-04-02T11:43:34.219Z,6.98
2023-04-02T11:46:41.238Z,7.14
2023-04-02T11:49:54.912Z,7.57
2023-04-02T11:53:04.141Z,7.64
2023-04-02T11:56:16.903Z,7.83
2023-04-02T11:59:51.194Z,7.44
2023-04-02T12:03:33.202Z,7.70
2023-04-02T12:06:46.735Z,7.56
2023-04-02T12:09:55.474Z,7.75
2023-04-02T12:13:00.222Z,7.71
2023-04-02T12:16:06.570Z,7.69
2023-04-02T12:19:16.580Z,7.44
2023-04-02T12:22:46.037Z,7.60
2023-04-02T12:26:37.033Z,7.54
2023-04-02T12:29:41.797Z,7.41
2023-04-02T12:32:46.708Z,7.51
2023-04-02T12:35:57.589Z,7.75
2023-04-02T12:39:02.232Z,7.63
2023-04-02T12:42:26.148Z,7.45
2023-04-02T12:45:33.511Z,7.25
2023-04-02T12:48:39.470Z,7.45
2023-04-02T12:51:44.342Z,7.73
2023-04-02T12:54:54.611Z,7.80
2023-04-02T12:58:00.011Z,7.95
2023-04-02T13:01:11.816Z,7.85
2023-04-02T13:04:16.613Z,7.73
2023-04-02T13:07:25.228Z,7.96
2023-04-02T13:10:30.006Z,7.42
2023-04-02T13:13:35.893Z,7.66
2023-04-02T13:16:40.949Z,7.20
2023-04-02T13:19:45.772Z,7.47
2023-04-02T13:22:50.367Z,7.05
2023-04-02T13:26:18.146Z,7.13
2023-04-02T13:29:24.276Z,7.11
2023-04-02T13:32:30.941Z,7.25
2023-04-02T13:35:35.602Z,7.10
2023-04-02T13:38:40.417Z,6.79
2023-04-02T13:42:04.466Z,7.19
2023-04-02T13:45:37.439Z,7.38
2023-04-02T13:48:42.342Z,7.49
2023-04-02T13:51:52.699Z,7.47
2023-04-02T13:55:01.272Z,7.50
2023-04-02T13:58:06.102Z,7.60
2023-04-02T14:01:10.686Z,7.58
2023-04-02T14:04:22.021Z,7.22
2023-04-02T14:07:36.484Z,7.64
2023-04-02T14:11:03.152Z,7.49
2023-04-02T14:14:46.635Z,7.55
2023-04-02T14:17:58.834Z,7.64
2023-04-02T14:21:14.564Z,9.02
2023-04-02T14:24:37.316Z,9.25
2023-04-02T14:28:23.564Z,8.87
2023-04-02T14:31:47.094Z,8.58
2023-04-02T14:35:13.999Z,7.74
2023-04-02T14:38:21.378Z,8.10
2023-04-02T14:41:34.793Z,7.82
2023-04-02T14:44:46.722Z,8.13
2023-04-02T14:48:05.191Z,8.04
2023-04-02T14:51:24.886Z,8.04
2023-04-02T14:54:39.054Z,7.46
2023-04-02T14:57:51.855Z,8.00
2023-04-02T15:01:24.952Z,8.29
2023-04-02T15:04:34.977Z,8.19
2023-04-02T15:07:45.389Z,7.25
2023-04-02T15:11:02.969Z,7.51
2023-04-02T15:14:20.224Z,6.28
2023-04-02T15:17:25.253Z,6.60
2023-04-02T15:20:39.806Z,7.14
2023-04-02T15:23:59.858Z,6.57
2023-04-02T15:27:25.618Z,6.69
2023-04-02T15:30:37.157Z,5.85
2023-04-02T15:33:44.568Z,6.17
2023-04-02T15:37:15.782Z,6.00
2023-04-02T15:40:33.467Z,5.96
2023-04-02T15:43:54.604Z,5.91
2023-04-02T15:47:18.810Z,5.52
2023-04-02T15:50:42.780Z,5.61
2023-04-02T15:53:56.231Z,5.74
2023-04-02T15:57:09.627Z,5.19
2023-04-02T16:00:26.423Z,4.77
2023-04-02T16:04:11.388Z,4.74
2023-04-02T16:07:24.048Z,5.35
2023-04-02T16:10:42.906Z,4.97
2023-04-02T16:13:47.870Z,4.70
2023-04-02T16:16:55.945Z,4.71
2023-04-02T16:20:31.666Z,4.54
2023-04-02T16:23:38.704Z,4.75
2023-04-02T16:26:58.893Z,4.69
2023-04-02T16:30:38.627Z,4.56
2023-04-02T16:34:18.597Z,4.31
2023-04-02T16:37:40.871Z,4.28
2023-04-02T16:41:21.820Z,4.33
2023-04-02T16:44:44.135Z,4.45
2023-04-02T16:48:13.178Z,4.39
2023-04-02T16:51:27.957Z,4.15
2023-04-02T16:54:45.846Z,4.19
2023-04-02T16:58:02.144Z,4.15
2023-04-02T17:01:28.232Z,4.38
2023-04-02T17:04:47.844Z,4.27
2023-04-02T17:08:09.056Z,3.98
2023-04-02T17:11:24.081Z,3.74
2023-04-02T17:14:42.571Z,3.57
2023-04-02T17:17:47.419Z,3.48
2023-04-02T17:20:52.415Z,3.31
2023-04-02T17:24:29.231Z,3.07
2023-04-02T17:27:41.223Z,2.82
2023-04-02T17:30:51.072Z,3.06
2023-04-02T17:33:55.962Z,2.88
2023-04-02T17:37:24.059Z,2.59
2023-04-02T17:41:09.059Z,3.02
2023-04-02T17:44:40.928Z,2.78
2023-04-02T17:48:02.801Z,2.65
2023-04-02T17:51:34.796Z,2.80
2023-04-02T17:55:03.879Z,2.54
2023-04-02T17:58:22.359Z,2.78
2023-04-02T18:01:55.010Z,2.67
2023-04-02T18:05:07.883Z,3.06
2023-04-02T18:08:31.881Z,2.58
2023-04-02T18:12:04.166Z,2.58
2023-04-02T18:15:14.895Z,2.58
2023-04-02T18:18:44.669Z,2.46
2023-04-02T18:22:18.848Z,2.79
2023-04-02T18:25:38.818Z,2.53
2023-04-02T18:29:07.914Z,3.11
2023-04-02T18:32:54.177Z,2.67
2023-04-02T18:36:18.944Z,2.52
2023-04-02T18:39:40.908Z,2.37
2023-04-02T18:43:15.456Z,2.17
2023-04-02T18:46:54.856Z,2.24
2023-04-02T18:50:12.265Z,2.29
2023-04-02T18:53:19.392Z,2.33
2023-04-02T18:56:24.600Z,2.38
2023-04-02T18:59:44.807Z,2.26
2023-04-02T19:02:56.849Z,2.22
2023-04-02T19:06:09.008Z,2.41
2023-04-02T19:09:19.038Z,2.22
2023-04-02T19:12:24.168Z,1.88
2023-04-02T19:15:39.517Z,2.11
2023-04-02T19:19:00.337Z,1.90
2023-04-02T19:22:16.894Z,2.29
2023-04-02T19:25:34.733Z,2.04
2023-04-02T19:28:55.085Z,2.39
2023-04-02T19:32:02.609Z,2.44
2023-04-02T19:35:27.095Z,2.41
2023-04-02T19:38:37.636Z,2.05
2023-04-02T19:41:53.526Z,2.30
2023-04-02T19:44:58.192Z,2.54
2023-04-02T19:48:10.790Z,2.38
2023-04-02T19:51:15.450Z,2.29
2023-04-02T19:54:20.130Z,2.51
2023-04-02T19:57:24.735Z,2.06
2023-04-02T20:00:29.487Z,2.39
2023-04-02T20:03:34.101Z,2.10
2023-04-02T20:06:38.800Z,2.19
2023-04-02T20:09:43.282Z,2.37
2023-04-02T20:12:47.823Z,2.36
2023-04-02T20:15:52.478Z,2.13
2023-04-02T20:18:57.633Z,2.07
2023-04-02T20:22:02.489Z,2.18
2023-04-02T20:25:07.649Z,2.26
2023-04-02T20:28:12.506Z,2.29
2023-04-02T20:31:18.644Z,2.04
2023-04-02T20:34:23.725Z,2.31
2023-04-02T20:37:29.033Z,1.70
2023-04-02T20:40:33.863Z,1.72
2023-04-02T20:43:40.508Z,1.90
2023-04-02T20:46:45.432Z,1.74
2023-04-02T20:49:50.593Z,1.62
2023-04-02T20:52:55.261Z,1.58
2023-04-02T20:56:10.145Z,1.52
2023-04-02T20:59:14.696Z,1.88
2023-04-02T21:02:19.252Z,1.92
2023-04-02T21:05:23.826Z,1.70
2023-04-02T21:08:28.632Z,2.02
2023-04-02T21:11:33.635Z,1.87
2023-04-02T21:14:39.810Z,1.57
2023-04-02T21:17:44.949Z,1.65
2023-04-02T21:21:04.903Z,1.70
2023-04-02T21:24:09.942Z,1.81
2023-04-02T21:27:14.645Z,1.83
2023-04-02T21:30:19.418Z,1.66
2023-04-02T21:33:24.108Z,2.14
2023-04-02T21:36:31.506Z,2.09
2023-04-02T21:39:36.334Z,1.63
2023-04-02T21:42:41.126Z,1.47
2023-04-02T21:45:45.760Z,1.68
2023-04-02T21:48:51.390Z,1.67
2023-04-02T21:51:55.874Z,2.11
2023-04-02T21:55:00.423Z,1.84
2023-04-02T21:58:05.041Z,1.75
2023-04-02T22:01:16.834Z,1.53
2023-04-02T22:04:30.654Z,1.75
2023-04-02T22:07:35.328Z,1.72
2023-04-02T22:10:39.943Z,2.26
2023-04-02T22:13:46.714Z,1.90
2023-04-02T22:16:51.996Z,1.92
2023-04-02T22:19:56.663Z,2.37
2023-04-02T22:23:01.211Z,2.41
2023-04-02T22:26:07.641Z,1.87
2023-04-02T22:29:12.156Z,1.76
2023-04-02T22:32:16.729Z,2.03
2023-04-02T22:35:21.407Z,2.03
2023-04-02T22:38:26.119Z,1.88
2023-04-02T22:41:31.942Z,1.79
2023-04-02T22:44:36.486Z,1.76
2023-04-02T22:47:41.238Z,1.51
2023-04-02T22:50:50.123Z,1.59
2023-04-02T22:53:56.222Z,1.52
2023-04-02T22:57:01.025Z,1.67
2023-04-02T23:00:09.967Z,1.77
2023-04-02T23:03:14.553Z,1.77
2023-04-02T23:06:19.164Z,1.87
2023-04-02T23:09:23.658Z,1.58
2023-04-02T23:12:28.221Z,1.59
2023-04-02T23:15:33.045Z,1.98
2023-04-02T23:18:38.585Z,1.42
2023-04-02T23:21:43.206Z,1.39
2023-04-02T23:24:47.897Z,1.82
2023-04-02T23:27:52.814Z,1.90
2023-04-02T23:30:57.506Z,1.70
2023-04-02T23:34:02.058Z,2.04
2023-04-02T23:37:06.888Z,1.67
2023-04-02T23:40:11.531Z,1.75
2023-04-02T23:43:16.140Z,2.01
2023-04-02T23:46:21.050Z,1.68
2023-04-02T23:49:28.057Z,2.04
2023-04-02T23:52:32.875Z,1.93
2023-04-02T23:55:37.611Z,2.02
2023-04-02T23:58:42.239Z,2.22
